sensor_id;sensor_type;location;lat;lon;timestamp;P1;durP1;ratioP1;P2;durP2;ratioP2
56161;SDS011;42045;52.986;6.014;2022-12-13T00:01:37;67.05;;;34.63;;
56161;SDS011;42045;52.986;6.014;2022-12-13T00:04:04;56.88;;;29.80;;
56161;SDS011;42045;52.986;6.014;2022-12-13T00:06:32;50.22;;;27.65;;
56161;SDS011;42045;52.986;6.014;2022-12-13T00:08:59;60.55;;;32.13;;
56161;SDS011;42045;52.986;6.014;2022-12-13T00:11:25;57.70;;;30.98;;
56161;SDS011;42045;52.986;6.014;2022-12-13T00:13:51;54.10;;;31.73;;
56161;SDS011;42045;52.986;6.014;2022-12-13T00:16:18;52.95;;;28.98;;
56161;SDS011;42045;52.986;6.014;2022-12-13T00:18:49;58.00;;;30.67;;
56161;SDS011;42045;52.986;6.014;2022-12-13T00:21:20;51.35;;;26.83;;
56161;SDS011;42045;52.986;6.014;2022-12-13T00:23:47;55.40;;;27.88;;
56161;SDS011;42045;52.986;6.014;2022-12-13T00:26:17;53.55;;;29.20;;
56161;SDS011;42045;52.986;6.014;2022-12-13T00:28:44;54.83;;;29.70;;
56161;SDS011;42045;52.986;6.014;2022-12-13T00:31:12;54.63;;;29.42;;
56161;SDS011;42045;52.986;6.014;2022-12-13T00:33:37;51.03;;;27.35;;
56161;SDS011;42045;52.986;6.014;2022-12-13T00:36:04;49.80;;;27.63;;
56161;SDS011;42045;52.986;6.014;2022-12-13T00:38:30;49.13;;;27.35;;
56161;SDS011;42045;52.986;6.014;2022-12-13T00:40:56;51.13;;;26.58;;
56161;SDS011;42045;52.986;6.014;2022-12-13T00:43:21;52.58;;;27.63;;
56161;SDS011;42045;52.986;6.014;2022-12-13T00:45:47;51.47;;;28.60;;
56161;SDS011;42045;52.986;6.014;2022-12-13T00:48:13;55.33;;;28.80;;
56161;SDS011;42045;52.986;6.014;2022-12-13T00:50:39;51.42;;;29.05;;
56161;SDS011;42045;52.986;6.014;2022-12-13T00:53:04;42.92;;;26.63;;
56161;SDS011;42045;52.986;6.014;2022-12-13T00:55:30;50.88;;;29.27;;
56161;SDS011;42045;52.986;6.014;2022-12-13T00:57:56;47.53;;;27.98;;
56161;SDS011;42045;52.986;6.014;2022-12-13T01:00:22;57.42;;;29.88;;
56161;SDS011;42045;52.986;6.014;2022-12-13T01:02:50;50.45;;;28.25;;
56161;SDS011;42045;52.986;6.014;2022-12-13T01:05:17;54.53;;;28.65;;
56161;SDS011;42045;52.986;6.014;2022-12-13T01:07:43;49.70;;;28.58;;
56161;SDS011;42045;52.986;6.014;2022-12-13T01:10:09;49.40;;;28.40;;
56161;SDS011;42045;52.986;6.014;2022-12-13T01:12:36;50.83;;;27.75;;
56161;SDS011;42045;52.986;6.014;2022-12-13T01:15:03;49.15;;;26.77;;
56161;SDS011;42045;52.986;6.014;2022-12-13T01:17:29;52.03;;;28.30;;
56161;SDS011;42045;52.986;6.014;2022-12-13T01:19:55;45.60;;;25.70;;
56161;SDS011;42045;52.986;6.014;2022-12-13T01:22:21;49.28;;;27.20;;
56161;SDS011;42045;52.986;6.014;2022-12-13T01:24:47;46.67;;;27.02;;
56161;SDS011;42045;52.986;6.014;2022-12-13T01:27:13;53.10;;;28.15;;
56161;SDS011;42045;52.986;6.014;2022-12-13T01:29:38;48.40;;;27.02;;
56161;SDS011;42045;52.986;6.014;2022-12-13T01:32:04;49.60;;;26.55;;
56161;SDS011;42045;52.986;6.014;2022-12-13T01:34:30;52.03;;;27.17;;
56161;SDS011;42045;52.986;6.014;2022-12-13T01:36:56;52.63;;;25.33;;
56161;SDS011;42045;52.986;6.014;2022-12-13T01:39:21;50.60;;;27.13;;
56161;SDS011;42045;52.986;6.014;2022-12-13T01:41:49;45.42;;;26.13;;
56161;SDS011;42045;52.986;6.014;2022-12-13T01:47:41;43.80;;;24.70;;
56161;SDS011;42045;52.986;6.014;2022-12-13T01:50:11;45.40;;;25.15;;
56161;SDS011;42045;52.986;6.014;2022-12-13T01:52:41;47.83;;;24.10;;
56161;SDS011;42045;52.986;6.014;2022-12-13T01:55:08;43.35;;;25.42;;
56161;SDS011;42045;52.986;6.014;2022-12-13T01:57:35;48.65;;;24.73;;
56161;SDS011;42045;52.986;6.014;2022-12-13T02:00:04;45.58;;;23.92;;
56161;SDS011;42045;52.986;6.014;2022-12-13T02:02:32;42.58;;;24.52;;
56161;SDS011;42045;52.986;6.014;2022-12-13T02:07:43;48.75;;;25.90;;
56161;SDS011;42045;52.986;6.014;2022-12-13T02:10:10;39.85;;;24.27;;
56161;SDS011;42045;52.986;6.014;2022-12-13T02:12:36;45.72;;;24.38;;
56161;SDS011;42045;52.986;6.014;2022-12-13T02:15:04;45.47;;;23.77;;
56161;SDS011;42045;52.986;6.014;2022-12-13T02:20:22;55.42;;;28.38;;
56161;SDS011;42045;52.986;6.014;2022-12-13T02:28:08;59.78;;;26.00;;
56161;SDS011;42045;52.986;6.014;2022-12-13T02:30:41;56.42;;;26.65;;
56161;SDS011;42045;52.986;6.014;2022-12-13T02:38:26;41.13;;;24.85;;
56161;SDS011;42045;52.986;6.014;2022-12-13T02:43:52;44.65;;;23.77;;
56161;SDS011;42045;52.986;6.014;2022-12-13T02:46:42;48.05;;;24.75;;
56161;SDS011;42045;52.986;6.014;2022-12-13T02:49:14;44.95;;;24.77;;
56161;SDS011;42045;52.986;6.014;2022-12-13T02:51:41;48.58;;;25.17;;
56161;SDS011;42045;52.986;6.014;2022-12-13T02:54:08;44.83;;;23.85;;
56161;SDS011;42045;52.986;6.014;2022-12-13T02:56:34;49.08;;;26.52;;
56161;SDS011;42045;52.986;6.014;2022-12-13T02:59:00;52.97;;;26.10;;
56161;SDS011;42045;52.986;6.014;2022-12-13T03:01:34;46.15;;;26.77;;
56161;SDS011;42045;52.986;6.014;2022-12-13T03:06:55;45.60;;;22.45;;
56161;SDS011;42045;52.986;6.014;2022-12-13T03:09:38;41.15;;;24.00;;
56161;SDS011;42045;52.986;6.014;2022-12-13T03:12:30;40.90;;;23.02;;
56161;SDS011;42045;52.986;6.014;2022-12-13T03:15:19;40.22;;;22.02;;
56161;SDS011;42045;52.986;6.014;2022-12-13T03:17:55;48.33;;;26.85;;
56161;SDS011;42045;52.986;6.014;2022-12-13T03:20:27;39.88;;;22.35;;
56161;SDS011;42045;52.986;6.014;2022-12-13T03:22:54;45.17;;;25.05;;
56161;SDS011;42045;52.986;6.014;2022-12-13T03:25:21;42.95;;;25.70;;
56161;SDS011;42045;52.986;6.014;2022-12-13T03:27:48;41.05;;;24.27;;
56161;SDS011;42045;52.986;6.014;2022-12-13T03:30:14;39.28;;;22.65;;
56161;SDS011;42045;52.986;6.014;2022-12-13T03:32:40;42.72;;;23.48;;
56161;SDS011;42045;52.986;6.014;2022-12-13T03:35:06;40.00;;;22.80;;
56161;SDS011;42045;52.986;6.014;2022-12-13T03:37:32;41.80;;;23.20;;
56161;SDS011;42045;52.986;6.014;2022-12-13T03:39:57;51.50;;;27.23;;
56161;SDS011;42045;52.986;6.014;2022-12-13T03:42:24;48.20;;;26.77;;
56161;SDS011;42045;52.986;6.014;2022-12-13T03:44:49;47.15;;;25.67;;
56161;SDS011;42045;52.986;6.014;2022-12-13T03:47:16;45.92;;;25.67;;
56161;SDS011;42045;52.986;6.014;2022-12-13T03:49:41;43.80;;;25.27;;
56161;SDS011;42045;52.986;6.014;2022-12-13T03:52:07;41.15;;;23.63;;
56161;SDS011;42045;52.986;6.014;2022-12-13T03:54:33;42.67;;;22.48;;
56161;SDS011;42045;52.986;6.014;2022-12-13T03:56:58;40.17;;;23.75;;
56161;SDS011;42045;52.986;6.014;2022-12-13T03:59:25;39.38;;;23.70;;
56161;SDS011;42045;52.986;6.014;2022-12-13T04:01:51;37.30;;;22.08;;
56161;SDS011;42045;52.986;6.014;2022-12-13T04:04:17;39.58;;;24.58;;
56161;SDS011;42045;52.986;6.014;2022-12-13T04:06:42;35.55;;;22.05;;
56161;SDS011;42045;52.986;6.014;2022-12-13T04:09:08;43.63;;;23.05;;
56161;SDS011;42045;52.986;6.014;2022-12-13T04:11:34;38.45;;;23.85;;
56161;SDS011;42045;52.986;6.014;2022-12-13T04:14:18;39.08;;;22.83;;
56161;SDS011;42045;52.986;6.014;2022-12-13T04:16:43;39.95;;;23.48;;
56161;SDS011;42045;52.986;6.014;2022-12-13T04:19:10;43.30;;;24.45;;
56161;SDS011;42045;52.986;6.014;2022-12-13T04:21:35;40.65;;;24.45;;
56161;SDS011;42045;52.986;6.014;2022-12-13T04:24:01;43.55;;;25.98;;
56161;SDS011;42045;52.986;6.014;2022-12-13T04:26:27;39.22;;;24.08;;
56161;SDS011;42045;52.986;6.014;2022-12-13T04:28:53;40.20;;;22.65;;
56161;SDS011;42045;52.986;6.014;2022-12-13T04:31:18;40.38;;;22.80;;
56161;SDS011;42045;52.986;6.014;2022-12-13T04:33:44;43.17;;;22.98;;
56161;SDS011;42045;52.986;6.014;2022-12-13T04:36:10;41.67;;;25.13;;
56161;SDS011;42045;52.986;6.014;2022-12-13T04:38:35;42.28;;;24.98;;
56161;SDS011;42045;52.986;6.014;2022-12-13T04:41:05;45.20;;;24.67;;
56161;SDS011;42045;52.986;6.014;2022-12-13T04:43:32;42.25;;;22.90;;
56161;SDS011;42045;52.986;6.014;2022-12-13T04:45:58;41.55;;;24.63;;
56161;SDS011;42045;52.986;6.014;2022-12-13T04:48:24;42.72;;;24.90;;
56161;SDS011;42045;52.986;6.014;2022-12-13T04:50:50;41.35;;;25.52;;
56161;SDS011;42045;52.986;6.014;2022-12-13T04:53:15;41.97;;;25.17;;
56161;SDS011;42045;52.986;6.014;2022-12-13T04:55:41;42.95;;;24.60;;
56161;SDS011;42045;52.986;6.014;2022-12-13T04:58:06;42.50;;;24.98;;
56161;SDS011;42045;52.986;6.014;2022-12-13T05:00:32;41.30;;;24.15;;
56161;SDS011;42045;52.986;6.014;2022-12-13T05:02:58;41.15;;;23.45;;
56161;SDS011;42045;52.986;6.014;2022-12-13T05:05:23;39.65;;;23.98;;
56161;SDS011;42045;52.986;6.014;2022-12-13T05:07:49;43.30;;;23.77;;
56161;SDS011;42045;52.986;6.014;2022-12-13T05:10:15;42.42;;;24.15;;
56161;SDS011;42045;52.986;6.014;2022-12-13T05:12:40;38.90;;;23.20;;
56161;SDS011;42045;52.986;6.014;2022-12-13T05:15:06;37.92;;;23.55;;
56161;SDS011;42045;52.986;6.014;2022-12-13T05:17:32;37.47;;;21.63;;
56161;SDS011;42045;52.986;6.014;2022-12-13T05:19:58;42.90;;;23.65;;
56161;SDS011;42045;52.986;6.014;2022-12-13T05:22:24;36.38;;;21.63;;
56161;SDS011;42045;52.986;6.014;2022-12-13T05:24:50;34.80;;;22.45;;
56161;SDS011;42045;52.986;6.014;2022-12-13T05:27:16;39.55;;;22.70;;
56161;SDS011;42045;52.986;6.014;2022-12-13T05:29:42;37.42;;;21.45;;
56161;SDS011;42045;52.986;6.014;2022-12-13T05:32:08;34.42;;;20.48;;
56161;SDS011;42045;52.986;6.014;2022-12-13T05:34:34;42.75;;;23.50;;
56161;SDS011;42045;52.986;6.014;2022-12-13T05:37:00;36.25;;;21.98;;
56161;SDS011;42045;52.986;6.014;2022-12-13T05:39:25;38.00;;;22.63;;
56161;SDS011;42045;52.986;6.014;2022-12-13T05:41:51;41.03;;;23.35;;
56161;SDS011;42045;52.986;6.014;2022-12-13T05:44:18;41.38;;;22.92;;
56161;SDS011;42045;52.986;6.014;2022-12-13T05:46:44;42.00;;;22.90;;
56161;SDS011;42045;52.986;6.014;2022-12-13T05:49:09;42.90;;;23.15;;
56161;SDS011;42045;52.986;6.014;2022-12-13T05:51:35;40.13;;;23.48;;
56161;SDS011;42045;52.986;6.014;2022-12-13T05:54:00;38.05;;;22.50;;
56161;SDS011;42045;52.986;6.014;2022-12-13T05:56:27;38.47;;;21.77;;
56161;SDS011;42045;52.986;6.014;2022-12-13T05:58:52;41.17;;;22.88;;
56161;SDS011;42045;52.986;6.014;2022-12-13T06:01:18;43.22;;;23.95;;
56161;SDS011;42045;52.986;6.014;2022-12-13T06:03:44;39.42;;;23.27;;
56161;SDS011;42045;52.986;6.014;2022-12-13T06:06:10;41.78;;;23.73;;
56161;SDS011;42045;52.986;6.014;2022-12-13T06:08:36;40.67;;;23.48;;
56161;SDS011;42045;52.986;6.014;2022-12-13T06:11:03;41.25;;;23.15;;
56161;SDS011;42045;52.986;6.014;2022-12-13T06:13:29;47.28;;;25.10;;
56161;SDS011;42045;52.986;6.014;2022-12-13T06:15:59;41.70;;;23.73;;
56161;SDS011;42045;52.986;6.014;2022-12-13T06:18:26;38.88;;;22.92;;
56161;SDS011;42045;52.986;6.014;2022-12-13T06:21:00;44.42;;;25.50;;
56161;SDS011;42045;52.986;6.014;2022-12-13T06:23:28;42.08;;;22.95;;
56161;SDS011;42045;52.986;6.014;2022-12-13T06:25:55;39.25;;;21.77;;
56161;SDS011;42045;52.986;6.014;2022-12-13T06:28:21;39.42;;;22.95;;
56161;SDS011;42045;52.986;6.014;2022-12-13T06:30:47;46.03;;;25.80;;
56161;SDS011;42045;52.986;6.014;2022-12-13T06:33:16;46.50;;;27.33;;
56161;SDS011;42045;52.986;6.014;2022-12-13T06:35:45;41.03;;;23.77;;
56161;SDS011;42045;52.986;6.014;2022-12-13T06:38:11;42.97;;;24.98;;
56161;SDS011;42045;52.986;6.014;2022-12-13T06:40:38;44.85;;;24.85;;
56161;SDS011;42045;52.986;6.014;2022-12-13T06:43:04;50.05;;;30.85;;
56161;SDS011;42045;52.986;6.014;2022-12-13T06:45:29;54.78;;;32.72;;
56161;SDS011;42045;52.986;6.014;2022-12-13T06:47:55;60.42;;;33.05;;
56161;SDS011;42045;52.986;6.014;2022-12-13T06:50:21;49.85;;;29.88;;
56161;SDS011;42045;52.986;6.014;2022-12-13T06:52:47;38.72;;;24.10;;
56161;SDS011;42045;52.986;6.014;2022-12-13T06:55:13;47.92;;;28.25;;
56161;SDS011;42045;52.986;6.014;2022-12-13T06:57:39;52.97;;;30.60;;
56161;SDS011;42045;52.986;6.014;2022-12-13T07:00:05;76.32;;;42.13;;
56161;SDS011;42045;52.986;6.014;2022-12-13T07:02:31;46.97;;;29.48;;
56161;SDS011;42045;52.986;6.014;2022-12-13T07:04:57;44.92;;;23.55;;
56161;SDS011;42045;52.986;6.014;2022-12-13T07:07:23;44.03;;;23.70;;
56161;SDS011;42045;52.986;6.014;2022-12-13T07:09:50;44.10;;;26.70;;
56161;SDS011;42045;52.986;6.014;2022-12-13T07:12:16;45.17;;;27.25;;
56161;SDS011;42045;52.986;6.014;2022-12-13T07:14:43;51.67;;;29.95;;
56161;SDS011;42045;52.986;6.014;2022-12-13T07:17:08;49.28;;;29.25;;
56161;SDS011;42045;52.986;6.014;2022-12-13T07:19:34;43.90;;;26.50;;
56161;SDS011;42045;52.986;6.014;2022-12-13T07:22:00;47.15;;;27.20;;
56161;SDS011;42045;52.986;6.014;2022-12-13T07:24:26;42.00;;;26.30;;
56161;SDS011;42045;52.986;6.014;2022-12-13T07:26:52;49.22;;;28.45;;
56161;SDS011;42045;52.986;6.014;2022-12-13T07:29:17;65.25;;;37.03;;
56161;SDS011;42045;52.986;6.014;2022-12-13T07:31:43;53.97;;;35.30;;
56161;SDS011;42045;52.986;6.014;2022-12-13T07:34:09;43.05;;;25.83;;
56161;SDS011;42045;52.986;6.014;2022-12-13T07:36:34;43.47;;;25.08;;
56161;SDS011;42045;52.986;6.014;2022-12-13T07:39:00;44.88;;;24.40;;
56161;SDS011;42045;52.986;6.014;2022-12-13T07:41:26;40.92;;;24.83;;
56161;SDS011;42045;52.986;6.014;2022-12-13T07:43:52;43.97;;;25.02;;
56161;SDS011;42045;52.986;6.014;2022-12-13T07:46:18;42.60;;;24.85;;
56161;SDS011;42045;52.986;6.014;2022-12-13T07:48:43;45.35;;;26.70;;
56161;SDS011;42045;52.986;6.014;2022-12-13T07:51:09;38.55;;;24.88;;
56161;SDS011;42045;52.986;6.014;2022-12-13T07:53:38;44.47;;;25.48;;
56161;SDS011;42045;52.986;6.014;2022-12-13T07:56:08;43.08;;;26.13;;
56161;SDS011;42045;52.986;6.014;2022-12-13T07:58:36;47.05;;;27.95;;
56161;SDS011;42045;52.986;6.014;2022-12-13T08:01:06;45.13;;;26.38;;
56161;SDS011;42045;52.986;6.014;2022-12-13T08:03:32;41.28;;;25.60;;
56161;SDS011;42045;52.986;6.014;2022-12-13T08:08:29;48.00;;;26.90;;
56161;SDS011;42045;52.986;6.014;2022-12-13T08:10:59;46.58;;;26.02;;
56161;SDS011;42045;52.986;6.014;2022-12-13T08:13:25;46.53;;;25.48;;
56161;SDS011;42045;52.986;6.014;2022-12-13T08:15:56;43.92;;;25.38;;
56161;SDS011;42045;52.986;6.014;2022-12-13T08:18:25;45.42;;;26.50;;
56161;SDS011;42045;52.986;6.014;2022-12-13T08:20:52;49.42;;;28.00;;
56161;SDS011;42045;52.986;6.014;2022-12-13T08:23:22;54.60;;;27.52;;
56161;SDS011;42045;52.986;6.014;2022-12-13T08:25:51;45.97;;;27.73;;
56161;SDS011;42045;52.986;6.014;2022-12-13T08:28:18;51.03;;;27.55;;
56161;SDS011;42045;52.986;6.014;2022-12-13T08:30:44;50.40;;;27.67;;
56161;SDS011;42045;52.986;6.014;2022-12-13T08:33:11;50.35;;;28.13;;
56161;SDS011;42045;52.986;6.014;2022-12-13T08:35:36;47.47;;;28.55;;
56161;SDS011;42045;52.986;6.014;2022-12-13T08:38:02;46.25;;;26.77;;
56161;SDS011;42045;52.986;6.014;2022-12-13T08:40:28;47.47;;;28.35;;
56161;SDS011;42045;52.986;6.014;2022-12-13T08:42:54;45.35;;;27.48;;
56161;SDS011;42045;52.986;6.014;2022-12-13T08:45:19;51.30;;;28.88;;
56161;SDS011;42045;52.986;6.014;2022-12-13T08:47:47;48.83;;;26.67;;
56161;SDS011;42045;52.986;6.014;2022-12-13T08:50:13;50.20;;;29.77;;
56161;SDS011;42045;52.986;6.014;2022-12-13T08:52:39;47.05;;;27.23;;
56161;SDS011;42045;52.986;6.014;2022-12-13T08:55:07;51.90;;;27.70;;
56161;SDS011;42045;52.986;6.014;2022-12-13T08:57:35;46.13;;;27.25;;
56161;SDS011;42045;52.986;6.014;2022-12-13T09:00:02;53.70;;;28.92;;
56161;SDS011;42045;52.986;6.014;2022-12-13T09:02:32;45.80;;;27.10;;
56161;SDS011;42045;52.986;6.014;2022-12-13T09:04:57;49.85;;;28.38;;
56161;SDS011;42045;52.986;6.014;2022-12-13T09:07:23;52.08;;;30.23;;
56161;SDS011;42045;52.986;6.014;2022-12-13T09:09:49;47.55;;;29.60;;
56161;SDS011;42045;52.986;6.014;2022-12-13T09:12:14;49.35;;;29.20;;
56161;SDS011;42045;52.986;6.014;2022-12-13T09:14:40;51.35;;;30.85;;
56161;SDS011;42045;52.986;6.014;2022-12-13T09:17:06;51.88;;;31.73;;
56161;SDS011;42045;52.986;6.014;2022-12-13T09:19:32;53.72;;;30.42;;
56161;SDS011;42045;52.986;6.014;2022-12-13T09:21:57;54.30;;;30.70;;
56161;SDS011;42045;52.986;6.014;2022-12-13T09:24:23;55.25;;;31.23;;
56161;SDS011;42045;52.986;6.014;2022-12-13T09:26:50;57.72;;;30.77;;
56161;SDS011;42045;52.986;6.014;2022-12-13T09:29:15;53.78;;;31.20;;
56161;SDS011;42045;52.986;6.014;2022-12-13T09:31:41;55.65;;;32.45;;
56161;SDS011;42045;52.986;6.014;2022-12-13T09:34:08;52.05;;;30.77;;
56161;SDS011;42045;52.986;6.014;2022-12-13T09:36:34;60.90;;;34.40;;
56161;SDS011;42045;52.986;6.014;2022-12-13T09:38:59;57.53;;;32.13;;
56161;SDS011;42045;52.986;6.014;2022-12-13T09:41:30;59.03;;;33.22;;
56161;SDS011;42045;52.986;6.014;2022-12-13T09:49:00;71.45;;;38.30;;
56161;SDS011;42045;52.986;6.014;2022-12-13T09:51:28;72.30;;;39.88;;
56161;SDS011;42045;52.986;6.014;2022-12-13T09:53:57;60.38;;;35.15;;
56161;SDS011;42045;52.986;6.014;2022-12-13T09:56:24;65.10;;;37.42;;
56161;SDS011;42045;52.986;6.014;2022-12-13T09:58:50;57.92;;;33.58;;
56161;SDS011;42045;52.986;6.014;2022-12-13T10:01:18;56.55;;;33.35;;
56161;SDS011;42045;52.986;6.014;2022-12-13T10:03:51;55.15;;;32.38;;
56161;SDS011;42045;52.986;6.014;2022-12-13T10:06:23;55.78;;;32.10;;
56161;SDS011;42045;52.986;6.014;2022-12-13T10:08:56;55.05;;;32.75;;
56161;SDS011;42045;52.986;6.014;2022-12-13T10:11:24;64.50;;;35.78;;
56161;SDS011;42045;52.986;6.014;2022-12-13T10:14:11;54.28;;;33.00;;
56161;SDS011;42045;52.986;6.014;2022-12-13T10:16:44;57.63;;;32.38;;
56161;SDS011;42045;52.986;6.014;2022-12-13T10:21:44;56.08;;;33.15;;
56161;SDS011;42045;52.986;6.014;2022-12-13T10:24:13;56.22;;;31.65;;
56161;SDS011;42045;52.986;6.014;2022-12-13T10:26:42;58.25;;;33.20;;
56161;SDS011;42045;52.986;6.014;2022-12-13T10:29:08;60.60;;;33.25;;
56161;SDS011;42045;52.986;6.014;2022-12-13T10:31:41;61.47;;;34.92;;
56161;SDS011;42045;52.986;6.014;2022-12-13T10:36:54;54.20;;;34.65;;
56161;SDS011;42045;52.986;6.014;2022-12-13T10:39:37;57.45;;;34.28;;
56161;SDS011;42045;52.986;6.014;2022-12-13T10:42:37;56.72;;;33.63;;
56161;SDS011;42045;52.986;6.014;2022-12-13T10:45:12;59.25;;;34.83;;
56161;SDS011;42045;52.986;6.014;2022-12-13T10:47:43;58.55;;;34.97;;
56161;SDS011;42045;52.986;6.014;2022-12-13T10:50:20;55.45;;;33.67;;
56161;SDS011;42045;52.986;6.014;2022-12-13T10:52:52;57.30;;;35.33;;
56161;SDS011;42045;52.986;6.014;2022-12-13T10:55:52;60.85;;;34.22;;
56161;SDS011;42045;52.986;6.014;2022-12-13T10:58:18;60.42;;;33.92;;
56161;SDS011;42045;52.986;6.014;2022-12-13T11:00:45;60.08;;;35.20;;
56161;SDS011;42045;52.986;6.014;2022-12-13T11:03:27;54.83;;;33.63;;
56161;SDS011;42045;52.986;6.014;2022-12-13T11:06:14;56.25;;;35.40;;
56161;SDS011;42045;52.986;6.014;2022-12-13T11:08:42;55.47;;;34.25;;
56161;SDS011;42045;52.986;6.014;2022-12-13T11:11:08;59.17;;;36.10;;
56161;SDS011;42045;52.986;6.014;2022-12-13T11:13:46;59.38;;;35.00;;
56161;SDS011;42045;52.986;6.014;2022-12-13T11:16:21;62.90;;;35.88;;
56161;SDS011;42045;52.986;6.014;2022-12-13T11:18:54;62.08;;;36.70;;
56161;SDS011;42045;52.986;6.014;2022-12-13T11:21:24;59.70;;;34.45;;
56161;SDS011;42045;52.986;6.014;2022-12-13T11:23:55;60.63;;;37.38;;
56161;SDS011;42045;52.986;6.014;2022-12-13T11:26:24;61.20;;;36.75;;
56161;SDS011;42045;52.986;6.014;2022-12-13T11:29:00;90.68;;;47.88;;
56161;SDS011;42045;52.986;6.014;2022-12-13T11:31:55;67.15;;;36.88;;
56161;SDS011;42045;52.986;6.014;2022-12-13T11:34:50;52.00;;;33.65;;
56161;SDS011;42045;52.986;6.014;2022-12-13T11:37:44;54.85;;;33.42;;
56161;SDS011;42045;52.986;6.014;2022-12-13T11:40:26;53.15;;;33.05;;
56161;SDS011;42045;52.986;6.014;2022-12-13T11:43:20;57.97;;;31.88;;
56161;SDS011;42045;52.986;6.014;2022-12-13T11:45:52;51.77;;;32.83;;
56161;SDS011;42045;52.986;6.014;2022-12-13T11:48:43;58.38;;;32.28;;
56161;SDS011;42045;52.986;6.014;2022-12-13T11:51:14;55.70;;;32.72;;
56161;SDS011;42045;52.986;6.014;2022-12-13T11:56:39;49.90;;;30.17;;
56161;SDS011;42045;52.986;6.014;2022-12-13T11:59:23;54.10;;;31.02;;
56161;SDS011;42045;52.986;6.014;2022-12-13T12:02:00;54.03;;;30.75;;
56161;SDS011;42045;52.986;6.014;2022-12-13T12:04:43;53.35;;;30.92;;
56161;SDS011;42045;52.986;6.014;2022-12-13T12:07:13;41.78;;;27.33;;
56161;SDS011;42045;52.986;6.014;2022-12-13T12:09:49;48.00;;;28.63;;
56161;SDS011;42045;52.986;6.014;2022-12-13T12:12:23;42.40;;;26.63;;
56161;SDS011;42045;52.986;6.014;2022-12-13T12:17:38;49.22;;;28.17;;
56161;SDS011;42045;52.986;6.014;2022-12-13T12:20:04;41.28;;;27.35;;
56161;SDS011;42045;52.986;6.014;2022-12-13T12:22:39;44.75;;;26.90;;
56161;SDS011;42045;52.986;6.014;2022-12-13T12:33:33;42.95;;;25.98;;
56161;SDS011;42045;52.986;6.014;2022-12-13T12:57:47;33.83;;;23.13;;
56161;SDS011;42045;52.986;6.014;2022-12-13T13:00:18;37.97;;;24.17;;
56161;SDS011;42045;52.986;6.014;2022-12-13T13:05:38;40.85;;;26.20;;
56161;SDS011;42045;52.986;6.014;2022-12-13T13:08:10;42.65;;;26.52;;
56161;SDS011;42045;52.986;6.014;2022-12-13T13:10:41;38.33;;;25.80;;
56161;SDS011;42045;52.986;6.014;2022-12-13T13:18:54;38.55;;;26.58;;
56161;SDS011;42045;52.986;6.014;2022-12-13T13:26:31;37.83;;;24.17;;
56161;SDS011;42045;52.986;6.014;2022-12-13T13:34:41;38.63;;;26.25;;
56161;SDS011;42045;52.986;6.014;2022-12-13T13:39:59;42.00;;;27.25;;
56161;SDS011;42045;52.986;6.014;2022-12-13T13:51:33;40.58;;;26.92;;
56161;SDS011;42045;52.986;6.014;2022-12-13T14:00:24;41.30;;;27.95;;
56161;SDS011;42045;52.986;6.014;2022-12-13T14:02:49;44.50;;;28.67;;
56161;SDS011;42045;52.986;6.014;2022-12-13T14:24:33;41.92;;;28.25;;
56161;SDS011;42045;52.986;6.014;2022-12-13T14:29:57;41.92;;;29.00;;
56161;SDS011;42045;52.986;6.014;2022-12-13T14:32:24;44.35;;;30.08;;
56161;SDS011;42045;52.986;6.014;2022-12-13T14:34:52;45.15;;;29.63;;
56161;SDS011;42045;52.986;6.014;2022-12-13T14:39:51;46.47;;;28.58;;
56161;SDS011;42045;52.986;6.014;2022-12-13T14:42:21;42.15;;;28.30;;
56161;SDS011;42045;52.986;6.014;2022-12-13T14:44:54;42.50;;;28.27;;
56161;SDS011;42045;52.986;6.014;2022-12-13T14:47:38;42.05;;;27.73;;
56161;SDS011;42045;52.986;6.014;2022-12-13T14:50:05;44.33;;;28.27;;
56161;SDS011;42045;52.986;6.014;2022-12-13T14:52:32;45.47;;;28.95;;
56161;SDS011;42045;52.986;6.014;2022-12-13T14:55:04;42.42;;;27.50;;
56161;SDS011;42045;52.986;6.014;2022-12-13T14:57:31;42.35;;;27.65;;
56161;SDS011;42045;52.986;6.014;2022-12-13T14:59:58;42.40;;;26.98;;
56161;SDS011;42045;52.986;6.014;2022-12-13T15:02:27;41.55;;;26.65;;
56161;SDS011;42045;52.986;6.014;2022-12-13T15:05:02;43.75;;;28.50;;
56161;SDS011;42045;52.986;6.014;2022-12-13T15:12:52;47.78;;;29.88;;
56161;SDS011;42045;52.986;6.014;2022-12-13T15:15:29;48.25;;;31.58;;
56161;SDS011;42045;52.986;6.014;2022-12-13T15:20:37;50.97;;;30.98;;
56161;SDS011;42045;52.986;6.014;2022-12-13T15:23:04;46.92;;;30.83;;
56161;SDS011;42045;52.986;6.014;2022-12-13T15:25:54;50.65;;;31.98;;
56161;SDS011;42045;52.986;6.014;2022-12-13T15:28:26;47.65;;;30.77;;
56161;SDS011;42045;52.986;6.014;2022-12-13T15:30:58;45.80;;;30.60;;
56161;SDS011;42045;52.986;6.014;2022-12-13T15:33:26;49.67;;;30.42;;
56161;SDS011;42045;52.986;6.014;2022-12-13T15:36:05;50.25;;;29.48;;
56161;SDS011;42045;52.986;6.014;2022-12-13T15:38:31;45.88;;;30.30;;
56161;SDS011;42045;52.986;6.014;2022-12-13T15:40:58;47.75;;;30.80;;
56161;SDS011;42045;52.986;6.014;2022-12-13T15:43:36;44.13;;;29.42;;
56161;SDS011;42045;52.986;6.014;2022-12-13T15:46:08;46.75;;;29.00;;
56161;SDS011;42045;52.986;6.014;2022-12-13T15:48:41;44.95;;;28.77;;
56161;SDS011;42045;52.986;6.014;2022-12-13T15:53:38;44.95;;;29.65;;
56161;SDS011;42045;52.986;6.014;2022-12-13T15:56:34;45.60;;;27.83;;
56161;SDS011;42045;52.986;6.014;2022-12-13T15:59:05;44.35;;;27.23;;
56161;SDS011;42045;52.986;6.014;2022-12-13T16:01:51;44.10;;;28.40;;
56161;SDS011;42045;52.986;6.014;2022-12-13T16:04:20;49.92;;;28.50;;
56161;SDS011;42045;52.986;6.014;2022-12-13T16:06:50;44.28;;;27.60;;
56161;SDS011;42045;52.986;6.014;2022-12-13T16:09:21;45.10;;;29.50;;
56161;SDS011;42045;52.986;6.014;2022-12-13T16:11:52;43.95;;;28.40;;
56161;SDS011;42045;52.986;6.014;2022-12-13T16:16:55;43.90;;;28.33;;
56161;SDS011;42045;52.986;6.014;2022-12-13T16:19:46;43.70;;;28.38;;
56161;SDS011;42045;52.986;6.014;2022-12-13T16:22:12;48.65;;;28.08;;
56161;SDS011;42045;52.986;6.014;2022-12-13T16:24:37;51.15;;;29.35;;
56161;SDS011;42045;52.986;6.014;2022-12-13T16:27:03;45.55;;;29.33;;
56161;SDS011;42045;52.986;6.014;2022-12-13T16:29:29;49.78;;;29.80;;
56161;SDS011;42045;52.986;6.014;2022-12-13T16:31:55;53.47;;;32.95;;
56161;SDS011;42045;52.986;6.014;2022-12-13T16:34:23;57.10;;;32.45;;
56161;SDS011;42045;52.986;6.014;2022-12-13T16:36:49;60.05;;;33.67;;
56161;SDS011;42045;52.986;6.014;2022-12-13T16:39:15;53.60;;;32.15;;
56161;SDS011;42045;52.986;6.014;2022-12-13T16:41:41;56.45;;;33.90;;
56161;SDS011;42045;52.986;6.014;2022-12-13T16:44:08;52.47;;;32.88;;
56161;SDS011;42045;52.986;6.014;2022-12-13T16:46:50;56.78;;;33.63;;
56161;SDS011;42045;52.986;6.014;2022-12-13T16:49:26;55.40;;;34.00;;
56161;SDS011;42045;52.986;6.014;2022-12-13T16:51:54;55.22;;;33.20;;
56161;SDS011;42045;52.986;6.014;2022-12-13T16:54:20;57.55;;;31.70;;
56161;SDS011;42045;52.986;6.014;2022-12-13T16:56:47;48.80;;;31.20;;
56161;SDS011;42045;52.986;6.014;2022-12-13T16:59:15;52.13;;;32.85;;
56161;SDS011;42045;52.986;6.014;2022-12-13T17:01:43;48.13;;;30.30;;